Time;durP1;ratioP1;P1;durP2;ratioP2;P2;SDS_P1;SDS_P2;PMS_P1;PMS_P2;Temp;Humidity;BMP_temperature;BMP_pressure;BME280_temperature;BME280_humidity;BME280_pressure;Samples;Min_cycle;Max_cycle;Signal;HPM_P1;HPM_P2
2022/06/10 00:04:11;;;;;;;7.05;6.45;;;19.90;99.90;;;;;;10286342;28;20284;-85
2022/06/10 00:09:14;;;;;;;6.95;6.35;;;20.00;99.90;;;;;;10286163;28;20233;-85
2022/06/10 00:14:17;;;;;;;7.22;6.63;;;20.00;99.90;;;;;;10285112;28;20249;-85
2022/06/10 00:19:19;;;;;;;6.72;6.13;;;20.50;99.90;;;;;;10267382;28;20300;-85
2022/06/10 00:24:21;;;;;;;6.72;6.22;;;20.20;99.90;;;;;;10246222;29;20265;-85
2022/06/10 00:29:24;;;;;;;6.90;6.30;;;20.50;99.90;;;;;;10248443;28;20246;-85
2022/06/10 00:34:27;;;;;;;6.90;6.22;;;20.60;99.90;;;;;;10259359;28;20697;-85
2022/06/10 00:39:29;;;;;;;6.78;6.10;;;20.80;99.90;;;;;;10268165;28;20237;-85
2022/06/10 00:44:52;;;;;;;7.18;6.57;;;20.60;99.90;;;;;;10272706;28;20272;-85
2022/06/10 00:50:01;;;;;;;7.40;6.78;;;20.80;99.90;;;;;;10252199;28;20226;-85
2022/06/10 00:55:07;;;;;;;7.03;6.45;;;20.60;99.90;;;;;;10254816;28;20259;-85
2022/06/10 01:00:16;;;;;;;7.68;5.82;;;20.80;99.90;;;;;;10287383;28;20230;-85
2022/06/10 01:05:24;;;;;;;5.07;4.20;;;20.70;99.90;;;;;;10253523;28;20202;-85
2022/06/10 01:10:33;;;;;;;9.13;5.50;;;20.50;99.90;;;;;;10240699;28;20700;-85
2022/06/10 01:15:39;;;;;;;7.47;6.88;;;20.50;99.90;;;;;;10262596;28;20265;-85
2022/06/10 01:20:51;;;;;;;6.18;5.68;;;20.20;99.90;;;;;;10280184;28;20292;-85
2022/06/10 01:26:19;;;;;;;7.47;6.68;;;20.50;99.90;;;;;;10291982;28;20245;-85
2022/06/10 01:31:25;;;;;;;5.68;5.28;;;20.50;99.90;;;;;;10276486;28;20269;-85
2022/06/10 01:36:45;;;;;;;7.47;6.80;;;20.50;99.90;;;;;;10279787;28;20312;-85
2022/06/10 01:42:09;;;;;;;6.28;5.78;;;20.50;99.90;;;;;;10267412;28;20245;-86
2022/06/10 01:47:45;;;;;;;6.38;5.78;;;20.60;99.90;;;;;;10290955;28;20241;-85
2022/06/10 01:53:17;;;;;;;6.50;5.90;;;20.70;99.90;;;;;;10284543;28;20929;-85
2022/06/10 01:58:30;;;;;;;6.63;6.03;;;20.90;99.90;;;;;;10262314;28;20727;-85
2022/06/10 02:03:56;;;;;;;6.43;5.93;;;21.00;99.90;;;;;;10251215;28;20234;-85
2022/06/10 02:09:10;;;;;;;6.53;6.03;;;20.60;99.90;;;;;;10253619;28;20229;-85
2022/06/10 02:14:23;;;;;;;5.60;5.10;;;20.80;99.90;;;;;;10288835;28;20697;-86
2022/06/10 02:19:31;;;;;;;5.70;5.20;;;20.80;99.90;;;;;;10290132;28;20194;-86
2022/06/10 02:24:55;;;;;;;5.63;5.18;;;20.90;99.90;;;;;;10287970;28;20233;-86
2022/06/10 02:30:08;;;;;;;5.97;5.47;;;20.90;99.90;;;;;;10289893;28;20229;-86
2022/06/10 02:35:12;;;;;;;5.97;5.45;;;20.80;99.90;;;;;;10235791;29;20254;-85
2022/06/10 02:40:29;;;;;;;5.65;4.97;;;20.90;99.90;;;;;;10250562;28;20265;-85
2022/06/10 02:45:38;;;;;;;6.05;5.55;;;20.50;99.90;;;;;;10252756;28;20260;-86
2022/06/10 02:50:43;;;;;;;5.40;5.00;;;20.90;99.90;;;;;;10286868;28;20295;-85
2022/06/10 02:55:45;;;;;;;6.15;4.63;;;20.70;99.90;;;;;;10271177;28;20257;-85
2022/06/10 03:01:20;;;;;;;5.35;4.90;;;20.40;99.90;;;;;;10254031;28;20635;-85
2022/06/10 03:06:35;;;;;;;5.70;4.80;;;20.60;99.90;;;;;;10288552;28;20268;-85
2022/06/10 03:11:47;;;;;;;6.00;5.50;;;20.50;99.90;;;;;;10279927;28;20327;-85
2022/06/10 03:17:04;;;;;;;5.35;4.93;;;20.60;99.90;;;;;;10248177;28;20258;-85
2022/06/10 03:22:18;;;;;;;5.75;5.35;;;20.30;99.90;;;;;;10258609;28;20221;-85
2022/06/10 03:27:48;;;;;;;4.63;4.18;;;20.30;99.90;;;;;;10249682;28;20241;-86
2022/06/10 03:33:02;;;;;;;5.13;4.82;;;20.20;99.90;;;;;;10264552;28;20315;-85
2022/06/10 03:38:06;;;;;;;5.30;4.90;;;20.20;99.90;;;;;;10276167;28;20245;-85
2022/06/10 03:43:13;;;;;;;4.10;3.80;;;19.90;99.90;;;;;;10278354;28;20280;-85
2022/06/10 03:48:19;;;;;;;5.65;5.15;;;20.00;99.90;;;;;;10287411;28;20740;-85
2022/06/10 03:53:24;;;;;;;4.10;3.75;;;20.40;99.90;;;;;;10286401;28;20849;-85
2022/06/10 03:58:26;;;;;;;5.55;4.10;;;19.70;99.90;;;;;;10258623;28;20257;-85
2022/06/10 04:03:29;;;;;;;5.22;4.72;;;20.10;99.90;;;;;;10271121;28;20288;-85
2022/06/10 04:08:32;;;;;;;4.97;4.57;;;19.40;99.90;;;;;;10285309;28;20237;-85
2022/06/10 04:13:34;;;;;;;5.45;5.05;;;19.90;99.90;;;;;;10244273;29;20269;-86
2022/06/10 04:18:38;;;;;;;4.15;3.08;;;20.60;99.90;;;;;;10246975;28;20246;-86
2022/06/10 04:23:40;;;;;;;5.32;4.88;;;20.80;99.90;;;;;;10276028;28;20211;-86
2022/06/10 04:28:43;;;;;;;4.80;4.40;;;20.70;99.90;;;;;;10254812;28;20284;-86
2022/06/10 04:33:46;;;;;;;4.35;4.05;;;21.00;99.90;;;;;;10275446;28;20269;-86
2022/06/10 04:38:48;;;;;;;4.63;4.32;;;21.00;99.90;;;;;;10275712;28;20280;-86
2022/06/10 04:43:51;;;;;;;2.58;2.38;;;21.10;99.90;;;;;;10253265;28;20645;-86
2022/06/10 04:48:54;;;;;;;3.78;3.28;;;20.30;99.90;;;;;;10270165;28;20233;-86
2022/06/10 04:53:57;;;;;;;3.90;3.50;;;20.20;99.90;;;;;;10266807;28;20245;-86
2022/06/10 04:59:00;;;;;;;4.25;3.95;;;20.30;99.90;;;;;;10278697;28;20265;-86
2022/06/10 05:04:03;;;;;;;4.38;4.07;;;20.20;99.90;;;;;;10280614;28;20229;-86
2022/06/10 05:09:05;;;;;;;3.72;3.40;;;20.10;99.90;;;;;;10262057;28;20206;-86
2022/06/10 05:14:10;;;;;;;4.75;4.35;;;20.40;99.90;;;;;;10252948;28;20238;-86
2022/06/10 05:19:13;;;;;;;5.72;3.45;;;20.30;99.90;;;;;;10268209;28;20296;-86
2022/06/10 05:24:16;;;;;;;4.43;4.13;;;20.50;99.90;;;;;;10280160;28;20656;-86
2022/06/10 05:29:18;;;;;;;3.63;3.33;;;20.50;99.90;;;;;;10254169;28;20279;-87
2022/06/10 05:39:42;;;;;;;4.72;2.92;;;19.90;99.90;;;;;;10267574;28;20261;-87
2022/06/10 05:44:48;;;;;;;3.03;2.53;;;19.70;99.90;;;;;;10263832;28;20238;-86
2022/06/10 05:49:52;;;;;;;3.22;2.42;;;19.90;99.90;;;;;;10264945;28;20655;-87
2022/06/10 05:55:00;;;;;;;6.95;2.80;;;20.40;99.90;;;;;;10248409;28;20254;-86
2022/06/10 06:00:05;;;;;;;2.22;2.03;;;20.30;99.90;;;;;;10270206;28;20724;-87
2022/06/10 06:05:11;;;;;;;3.58;3.28;;;20.60;99.90;;;;;;10266663;28;20226;-87
2022/06/10 06:10:21;;;;;;;3.25;2.97;;;20.30;99.90;;;;;;10252219;28;20270;-87
2022/06/10 06:15:24;;;;;;;5.28;3.35;;;20.10;99.90;;;;;;10250903;28;20312;-87
2022/06/10 06:20:26;;;;;;;4.10;3.00;;;20.00;99.90;;;;;;10274282;28;20229;-87
2022/06/10 06:25:30;;;;;;;5.18;2.97;;;20.40;99.90;;;;;;10255830;28;20234;-86
2022/06/10 06:30:36;;;;;;;6.25;4.78;;;20.30;99.90;;;;;;10276784;28;20666;-86
2022/06/10 06:35:40;;;;;;;5.30;4.80;;;19.50;99.90;;;;;;10287456;28;20296;-87
2022/06/10 06:40:43;;;;;;;6.28;3.60;;;20.10;99.90;;;;;;10263447;28;20288;-86
2022/06/10 06:45:45;;;;;;;4.72;3.53;;;20.10;99.90;;;;;;10262453;28;20686;-86
2022/06/10 06:50:49;;;;;;;3.80;3.17;;;20.10;99.90;;;;;;10289299;28;20619;-86
2022/06/10 06:55:52;;;;;;;4.78;4.38;;;20.80;99.90;;;;;;10257570;28;20254;-87
2022/06/10 07:00:54;;;;;;;3.97;3.67;;;20.50;99.90;;;;;;10273826;28;20638;-86
2022/06/10 07:05:57;;;;;;;5.30;4.47;;;20.40;99.90;;;;;;10288562;28;20973;-86
2022/06/10 07:11:01;;;;;;;3.42;3.13;;;20.30;99.90;;;;;;10270126;28;20796;-86
2022/06/10 07:16:05;;;;;;;5.72;3.13;;;20.70;99.90;;;;;;10286392;28;20284;-85
2022/06/10 07:21:08;;;;;;;3.53;3.22;;;20.50;99.90;;;;;;10286335;28;20313;-86
2022/06/10 07:26:13;;;;;;;3.50;2.92;;;20.40;99.90;;;;;;10267797;28;20301;-86
2022/06/10 07:31:15;;;;;;;3.33;3.03;;;21.00;99.90;;;;;;10252112;28;20233;-86
2022/06/10 07:36:18;;;;;;;3.63;3.30;;;21.20;99.90;;;;;;10247575;29;20246;-86
2022/06/10 07:46:41;;;;;;;3.60;3.30;;;20.60;99.90;;;;;;10276141;28;20287;-86
2022/06/10 07:51:44;;;;;;;3.25;2.72;;;20.80;99.90;;;;;;10269978;28;20233;-85
2022/06/10 07:56:47;;;;;;;4.20;3.13;;;21.00;99.90;;;;;;10253082;28;20312;-86
2022/06/10 08:01:49;;;;;;;4.55;3.03;;;21.10;99.90;;;;;;10256930;28;20233;-85
2022/06/10 08:06:53;;;;;;;3.63;3.00;;;21.30;99.90;;;;;;10258434;28;20242;-86
2022/06/10 08:11:55;;;;;;;4.18;2.92;;;20.50;99.90;;;;;;10268681;28;20347;-85
2022/06/10 08:17:03;;;;;;;3.38;3.08;;;20.20;99.90;;;;;;10264923;28;20711;-83
2022/06/10 08:27:28;;;;;;;3.22;2.85;;;20.90;99.90;;;;;;10271590;28;20397;-85
2022/06/10 08:32:31;;;;;;;3.40;3.10;;;21.30;99.90;;;;;;10254231;28;20270;-84
2022/06/10 08:37:34;;;;;;;3.55;3.25;;;21.20;99.90;;;;;;10269458;28;20305;-84
2022/06/10 08:42:42;;;;;;;3.47;3.10;;;21.50;99.90;;;;;;10252449;28;20234;-84
2022/06/10 08:48:06;;;;;;;4.90;2.72;;;21.20;99.90;;;;;;10269195;28;20633;-84
2022/06/10 08:53:38;;;;;;;3.35;3.05;;;21.30;99.90;;;;;;10267713;28;20654;-84
2022/06/10 08:59:04;;;;;;;3.45;2.25;;;21.50;99.90;;;;;;10088884;29;20301;-84
2022/06/10 09:04:32;;;;;;;6.32;3.17;;;21.40;99.90;;;;;;10091869;29;20236;-85
2022/06/10 09:09:42;;;;;;;3.92;1.50;;;21.30;99.90;;;;;;10111041;29;20271;-85
2022/06/10 09:14:45;;;;;;;2.65;2.45;;;21.40;99.90;;;;;;10104889;29;20248;-85
2022/06/10 09:20:26;;;;;;;2.92;2.63;;;20.90;99.90;;;;;;10106398;29;20263;-85
2022/06/10 09:25:45;;;;;;;2.55;2.35;;;21.50;99.90;;;;;;9971168;29;20657;-85
2022/06/10 09:31:02;;;;;;;2.60;2.40;;;20.70;99.90;;;;;;9958264;29;20312;-85
2022/06/10 09:36:37;;;;;;;5.43;2.45;;;21.40;99.90;;;;;;10114771;29;20760;-85
2022/06/10 09:41:53;;;;;;;4.72;2.65;;;21.00;99.90;;;;;;10104428;29;20232;-85
2022/06/10 09:47:28;;;;;;;2.67;2.47;;;20.70;99.90;;;;;;10134207;29;20241;-85
2022/06/10 09:52:39;;;;;;;2.65;2.45;;;21.50;99.90;;;;;;9838089;29;10000155;-85
2022/06/10 09:57:52;;;;;;;3.05;2.13;;;21.60;99.90;;;;;;10237587;28;20213;-85
2022/06/10 10:03:21;;;;;;;2.30;2.10;;;21.00;99.90;;;;;;10316657;28;20222;-85
2022/06/10 10:08:37;;;;;;;2.70;2.47;;;21.40;99.90;;;;;;10327587;28;20205;-85
2022/06/10 10:13:52;;;;;;;3.08;2.72;;;21.60;99.90;;;;;;10318398;28;20209;-85
2022/06/10 10:19:18;;;;;;;2.22;1.95;;;21.30;99.90;;;;;;10298568;28;20260;-85
2022/06/10 10:24:24;;;;;;;2.17;1.98;;;21.40;99.90;;;;;;10323340;28;20186;-85
2022/06/10 10:29:33;;;;;;;3.05;1.80;;;21.40;99.90;;;;;;10312100;28;20198;-85
2022/06/10 10:34:38;;;;;;;3.60;1.60;;;21.40;99.90;;;;;;10252976;23;20290;-79
2022/06/10 10:39:53;;;;;;;2.25;1.90;;;21.30;99.90;;;;;;10226350;29;20303;-80
2022/06/10 10:45:07;;;;;;;3.20;1.98;;;21.60;99.90;;;;;;10245750;29;20300;-80
2022/06/10 10:50:20;;;;;;;2.17;1.70;;;21.70;99.90;;;;;;10237554;29;20230;-80
2022/06/10 10:55:31;;;;;;;2.92;1.95;;;21.50;99.90;;;;;;10244828;29;20234;-80
2022/06/10 11:00:52;;;;;;;4.22;2.70;;;21.70;99.90;;;;;;10249961;28;20269;-81
2022/06/10 11:05:58;;;;;;;2.28;2.08;;;21.80;99.90;;;;;;10248485;29;20206;-79
2022/06/10 11:11:30;;;;;;;5.03;2.13;;;21.80;99.90;;;;;;10231882;29;20636;-80
2022/06/10 11:17:09;;;;;;;5.65;2.30;;;21.80;99.90;;;;;;10283334;23;20291;-81
2022/06/10 11:22:15;;;;;;;2.58;2.28;;;22.00;99.90;;;;;;10278060;28;20217;-80
2022/06/10 11:27:28;;;;;;;4.18;3.22;;;22.00;99.90;;;;;;10288133;28;20609;-79
2022/06/10 11:32:42;;;;;;;3.95;2.42;;;22.00;99.90;;;;;;10263995;28;20206;-78
2022/06/10 11:37:49;;;;;;;4.28;2.72;;;22.00;99.90;;;;;;10284870;28;20257;-80
2022/06/10 11:42:55;;;;;;;3.72;3.38;;;22.10;99.90;;;;;;10286678;28;20637;-80
2022/06/10 11:48:14;;;;;;;5.10;1.60;;;22.10;99.90;;;;;;9592624;28;10000685;-80
2022/06/10 11:53:22;;;;;;;6.95;2.33;;;21.90;98.30;;;;;;10272875;28;20237;-79
2022/06/10 12:04:17;;;;;;;3.72;1.88;;;21.90;99.90;;;;;;10283347;28;20240;-79
2022/06/10 12:09:33;;;;;;;3.45;2.00;;;21.90;99.20;;;;;;10283225;28;20237;-80
2022/06/10 12:14:56;;;;;;;2.13;1.60;;;22.00;99.90;;;;;;10278216;28;20276;-78
2022/06/10 12:20:16;;;;;;;3.53;1.50;;;21.80;99.00;;;;;;10287371;28;20249;-79
2022/06/10 12:25:33;;;;;;;6.57;2.65;;;22.00;99.90;;;;;;10286556;28;20229;-79
2022/06/10 12:30:46;;;;;;;3.38;1.60;;;22.10;99.90;;;;;;10284232;28;20240;-82
2022/06/10 12:35:52;;;;;;;2.63;1.30;;;21.80;99.00;;;;;;10279720;28;20619;-80
2022/06/10 12:41:11;;;;;;;2.33;1.25;;;21.90;98.40;;;;;;10285949;28;20257;-80
2022/06/10 12:46:34;;;;;;;4.13;1.42;;;22.00;98.20;;;;;;10289444;28;20225;-79
2022/06/10 12:51:40;;;;;;;1.83;1.10;;;22.00;98.60;;;;;;10292947;28;20275;-79
2022/06/10 12:56:42;;;;;;;1.23;1.10;;;22.00;98.90;;;;;;10293521;28;20307;-80
2022/06/10 13:01:46;;;;;;;5.90;1.27;;;22.00;99.10;;;;;;10293883;28;20222;-80
2022/06/10 13:06:56;;;;;;;1.88;1.10;;;22.10;99.40;;;;;;10293207;28;20371;-81
2022/06/10 13:12:20;;;;;;;2.75;1.50;;;22.10;97.30;;;;;;10292603;28;20237;-81
2022/06/10 13:17:25;;;;;;;1.75;1.50;;;22.10;98.40;;;;;;10280067;28;20308;-80
2022/06/10 13:22:36;;;;;;;2.08;1.45;;;22.00;99.40;;;;;;10290687;28;20283;-80
2022/06/10 13:27:48;;;;;;;1.80;1.25;;;22.20;98.70;;;;;;10292713;28;20676;-79
2022/06/10 13:33:18;;;;;;;1.88;1.13;;;22.10;99.00;;;;;;10292550;28;20256;-80
2022/06/10 13:38:49;;;;;;;4.65;1.35;;;22.20;99.20;;;;;;10293063;28;20288;-80
2022/06/10 13:43:54;;;;;;;1.58;1.40;;;22.30;98.40;;;;;;10289053;28;20241;-81
2022/06/10 13:49:08;;;;;;;1.58;1.30;;;22.20;99.70;;;;;;9943949;28;10000185;-81
2022/06/10 13:54:21;;;;;;;2.25;1.55;;;22.20;96.70;;;;;;10287207;28;20229;-81
2022/06/10 13:59:29;;;;;;;4.28;1.98;;;22.30;97.80;;;;;;10286720;28;20742;-81
2022/06/10 14:04:34;;;;;;;1.95;1.20;;;22.30;99.70;;;;;;10287392;28;20679;-81
2022/06/10 14:09:38;;;;;;;4.68;1.40;;;22.40;96.80;;;;;;10285758;28;20637;-81
2022/06/10 14:14:41;;;;;;;1.10;1.08;;;22.30;99.60;;;;;;10284574;28;20632;-81
2022/06/10 14:19:50;;;;;;;1.90;1.45;;;22.30;98.50;;;;;;10285168;28;20277;-81
2022/06/10 14:25:12;;;;;;;1.55;1.20;;;22.30;99.60;;;;;;10282665;28;20741;-81
2022/06/10 14:30:20;;;;;;;1.75;0.95;;;22.40;99.90;;;;;;10284992;28;20233;-81
2022/06/10 14:35:38;;;;;;;1.15;1.05;;;22.40;99.30;;;;;;10283453;28;20241;-81
2022/06/10 14:41:07;;;;;;;1.90;1.20;;;22.40;99.90;;;;;;10284931;28;20303;-80
2022/06/10 14:46:12;;;;;;;8.10;1.30;;;22.40;98.20;;;;;;10256526;28;20290;-80
2022/06/10 14:51:34;;;;;;;2.70;1.40;;;22.40;97.80;;;;;;10287446;28;20833;-80
2022/06/10 14:56:40;;;;;;;2.05;1.20;;;22.30;95.90;;;;;;10283169;28;20704;-82
2022/06/10 15:01:43;;;;;;;4.72;0.98;;;22.60;96.60;;;;;;10282611;28;20280;-81
2022/06/10 15:06:53;;;;;;;1.00;0.85;;;23.70;94.30;;;;;;10282138;28;20234;-81
2022/06/10 15:11:56;;;;;;;1.45;1.20;;;24.80;92.00;;;;;;10283269;28;20695;-81
2022/06/10 15:16:59;;;;;;;2.08;1.88;;;25.10;91.20;;;;;;10236724;23;20258;-82
2022/06/10 15:22:24;;;;;;;1.15;1.05;;;25.50;93.80;;;;;;10166842;29;20615;-82
2022/06/10 15:27:27;;;;;;;1.45;1.05;;;25.40;93.50;;;;;;10143300;29;20220;-82
2022/06/10 15:32:30;;;;;;;2.00;1.13;;;25.80;92.50;;;;;;10178825;29;20278;-82
2022/06/10 15:42:53;;;;;;;3.10;1.02;;;25.70;93.00;;;;;;10245859;29;20206;-83
2022/06/10 15:47:56;;;;;;;1.33;1.17;;;26.20;80.70;;;;;;10241726;29;20615;-82
2022/06/10 15:53:00;;;;;;;4.53;0.80;;;26.20;87.10;;;;;;10229853;29;20265;-81
2022/06/10 15:58:03;;;;;;;1.40;1.10;;;24.20;82.60;;;;;;10246307;28;20709;-81
2022/06/10 16:03:09;;;;;;;1.48;1.13;;;25.70;91.80;;;;;;10258886;28;20236;-83
2022/06/10 16:08:12;;;;;;;1.92;1.20;;;24.20;78.50;;;;;;10245818;29;20246;-82
2022/06/10 16:13:19;;;;;;;3.35;0.90;;;24.90;87.50;;;;;;9921892;28;10000636;-82
2022/06/10 16:18:23;;;;;;;1.30;1.20;;;25.80;91.60;;;;;;10257410;28;20813;-82
2022/06/10 16:23:30;;;;;;;1.20;1.10;;;25.30;91.30;;;;;;10232462;29;20691;-82
2022/06/10 16:28:49;;;;;;;1.50;1.10;;;25.60;91.70;;;;;;10250473;29;20249;-82
2022/06/10 16:33:52;;;;;;;5.35;1.92;;;25.80;92.20;;;;;;10249216;28;20665;-82
2022/06/10 16:38:55;;;;;;;1.73;0.90;;;25.80;83.80;;;;;;10249296;28;20690;-82
2022/06/10 16:44:23;;;;;;;1.60;0.90;;;25.50;92.40;;;;;;10216871;29;20695;-82
2022/06/10 16:49:28;;;;;;;1.38;0.93;;;25.80;83.20;;;;;;10247753;29;20634;-82
2022/06/10 16:54:30;;;;;;;1.30;1.20;;;25.90;92.80;;;;;;10246697;28;20246;-84
2022/06/10 16:59:37;;;;;;;0.90;0.80;;;26.00;92.40;;;;;;10231500;29;20679;-86
2022/06/10 17:04:40;;;;;;;1.70;0.77;;;25.60;91.10;;;;;;10249598;29;20242;-84
2022/06/10 17:09:42;;;;;;;0.80;0.80;;;25.50;93.00;;;;;;10248051;29;20238;-83
2022/06/10 17:14:45;;;;;;;0.95;0.80;;;25.70;93.40;;;;;;10270400;28;20281;-85
2022/06/10 17:19:48;;;;;;;0.95;0.95;;;25.20;90.70;;;;;;10248009;28;20265;-84
2022/06/10 17:24:51;;;;;;;3.08;1.15;;;24.90;94.30;;;;;;10240937;28;20238;-84
2022/06/10 17:29:55;;;;;;;0.82;0.82;;;25.40;91.50;;;;;;10247652;28;20281;-84
2022/06/10 17:34:59;;;;;;;1.17;1.00;;;25.40;94.70;;;;;;10248927;28;20348;-83
2022/06/10 17:40:03;;;;;;;0.95;0.85;;;25.50;93.10;;;;;;10246349;28;20250;-84
2022/06/10 17:45:15;;;;;;;2.05;1.13;;;25.40;93.50;;;;;;10253849;28;20272;-86
2022/06/10 17:50:24;;;;;;;1.83;1.15;;;25.30;93.00;;;;;;10257464;28;20255;-83
2022/06/10 17:55:26;;;;;;;3.35;0.93;;;25.40;95.00;;;;;;10296067;23;20307;-84
2022/06/10 18:00:43;;;;;;;1.40;1.02;;;25.00;82.30;;;;;;10293992;28;20307;-84
2022/06/10 18:05:53;;;;;;;0.73;0.65;;;23.00;75.90;;;;;;10328592;28;20672;-85
2022/06/10 18:10:57;;;;;;;10.05;0.77;;;22.10;81.90;;;;;;10304117;28;20221;-85
2022/06/10 18:16:00;;;;;;;3.88;0.70;;;21.20;85.40;;;;;;10331195;28;20287;-85
2022/06/10 18:21:05;;;;;;;1.02;0.88;;;20.80;86.60;;;;;;10312024;28;20315;-86
2022/06/10 18:26:18;;;;;;;3.72;1.00;;;20.90;88.10;;;;;;10305878;28;20217;-84
2022/06/10 18:31:24;;;;;;;1.10;1.00;;;21.30;94.20;;;;;;9945179;28;10000466;-84
2022/06/10 18:36:27;;;;;;;1.92;0.93;;;20.40;89.60;;;;;;10300069;28;20256;-84
2022/06/10 18:41:29;;;;;;;6.35;1.95;;;19.80;91.10;;;;;;10325554;28;20256;-84
2022/06/10 18:46:32;;;;;;;4.68;1.50;;;19.30;92.90;;;;;;10321004;28;20229;-84
2022/06/10 18:51:37;;;;;;;10.80;1.65;;;19.10;92.70;;;;;;10271672;28;20233;-84
2022/06/10 18:56:44;;;;;;;6.00;1.70;;;18.80;93.70;;;;;;10287741;28;20265;-84
2022/06/10 19:01:49;;;;;;;3.58;1.60;;;18.60;94.30;;;;;;10289787;28;20272;-84
2022/06/10 19:06:53;;;;;;;10.07;2.00;;;18.20;98.40;;;;;;10285367;28;20628;-84
2022/06/10 19:11:57;;;;;;;2.35;1.42;;;17.90;99.40;;;;;;10299950;28;20240;-84
2022/06/10 19:17:04;;;;;;;3.63;2.33;;;17.80;99.70;;;;;;10308386;28;20700;-84
2022/06/10 19:22:22;;;;;;;4.18;1.27;;;17.50;99.90;;;;;;10307291;28;20823;-84
2022/06/10 19:27:29;;;;;;;4.35;1.60;;;17.30;99.90;;;;;;10262348;28;20299;-84
2022/06/10 19:32:40;;;;;;;1.90;1.27;;;17.10;99.90;;;;;;10270141;28;20245;-85
2022/06/10 19:37:43;;;;;;;4.40;2.03;;;;;;;;;;10297342;28;20241;-84
2022/06/10 19:42:46;;;;;;;7.37;1.70;;;17.20;99.90;;;;;;10303130;28;20312;-84
2022/06/10 19:48:00;;;;;;;2.50;1.40;;;17.10;99.90;;;;;;10284906;28;20253;-84
2022/06/10 19:53:11;;;;;;;3.53;3.07;;;17.10;99.90;;;;;;10285483;28;20292;-84
2022/06/10 19:58:25;;;;;;;2.97;1.77;;;16.50;99.90;;;;;;10274414;28;20316;-84
2022/06/10 20:03:32;;;;;;;7.33;6.13;;;16.50;99.90;;;;;;10274206;28;20237;-84
2022/06/10 20:08:36;;;;;;;14.13;7.30;;;16.20;99.90;;;;;;10284786;28;20268;-85
2022/06/10 20:13:42;;;;;;;2.07;1.77;;;16.20;99.90;;;;;;10301554;28;20242;-84
2022/06/10 20:18:49;;;;;;;2.22;2.08;;;18.30;99.90;;;;;;10294525;28;20700;-84
2022/06/10 20:23:54;;;;;;;1.55;1.45;;;20.30;99.90;;;;;;10317229;28;20280;-83
2022/06/10 20:28:57;;;;;;;2.60;1.70;;;21.30;99.90;;;;;;10284077;28;20236;-83
2022/06/10 20:34:00;;;;;;;1.83;1.65;;;21.80;99.90;;;;;;10265158;28;20288;-84
2022/06/10 20:39:05;;;;;;;2.17;1.60;;;22.20;99.90;;;;;;10326543;28;20256;-83
2022/06/10 20:44:28;;;;;;;2.92;1.77;;;22.40;99.90;;;;;;10302777;28;20299;-83
2022/06/10 20:49:34;;;;;;;2.63;2.10;;;22.60;99.90;;;;;;10292522;28;20745;-83
2022/06/10 20:54:36;;;;;;;1.92;1.70;;;22.60;99.90;;;;;;10297935;28;20692;-83
2022/06/10 20:59:40;;;;;;;2.63;1.90;;;22.70;99.90;;;;;;10316647;28;20248;-84
2022/06/10 21:10:06;;;;;;;2.03;1.70;;;22.80;99.90;;;;;;10292739;28;20241;-83
2022/06/10 21:15:15;;;;;;;3.00;1.80;;;22.80;99.90;;;;;;10296794;28;20240;-83
2022/06/10 21:20:25;;;;;;;1.83;1.73;;;22.80;99.90;;;;;;10297867;28;20248;-83
2022/06/10 21:25:35;;;;;;;1.75;1.55;;;22.80;99.90;;;;;;10306219;28;20726;-83
2022/06/10 21:30:41;;;;;;;1.45;1.35;;;22.80;99.90;;;;;;10290548;28;20240;-84
2022/06/10 21:35:43;;;;;;;1.67;1.58;;;22.80;99.90;;;;;;10273270;28;20891;-83
2022/06/10 21:40:47;;;;;;;1.80;1.70;;;22.80;99.90;;;;;;10310862;28;20706;-84
2022/06/10 21:45:51;;;;;;;2.80;1.80;;;22.50;99.90;;;;;;10331573;28;20267;-83
2022/06/10 21:50:54;;;;;;;1.58;1.48;;;22.60;99.90;;;;;;10300649;28;20267;-83
2022/06/10 21:55:58;;;;;;;1.75;1.65;;;22.60;99.90;;;;;;10302731;28;20268;-83
2022/06/10 22:01:23;;;;;;;2.08;1.70;;;22.70;99.90;;;;;;10298143;28;20335;-83
2022/06/10 22:06:35;;;;;;;1.95;1.63;;;22.70;99.90;;;;;;10281892;28;20241;-84
2022/06/10 22:11:38;;;;;;;1.73;1.60;;;22.70;99.90;;;;;;10275701;28;20687;-84
2022/06/10 22:16:46;;;;;;;1.77;1.67;;;22.60;99.90;;;;;;10292356;28;20237;-84
2022/06/10 22:21:57;;;;;;;1.58;1.48;;;22.60;99.90;;;;;;10329285;28;20256;-83
2022/06/10 22:27:21;;;;;;;2.47;1.60;;;22.60;99.90;;;;;;10297550;28;20241;-83
2022/06/10 22:32:26;;;;;;;3.10;1.73;;;22.60;99.90;;;;;;10288230;28;20304;-84
2022/06/10 22:37:31;;;;;;;2.10;1.90;;;22.60;99.90;;;;;;10303702;28;20264;-83
2022/06/10 22:42:37;;;;;;;2.17;1.05;;;22.60;99.90;;;;;;10312991;28;20312;-83
2022/06/10 22:47:41;;;;;;;4.78;2.08;;;22.60;99.90;;;;;;10286234;28;20269;-83
2022/06/10 22:52:47;;;;;;;2.63;1.80;;;22.60;99.90;;;;;;10283067;28;20319;-83
2022/06/10 22:57:52;;;;;;;1.90;1.70;;;22.50;99.90;;;;;;10232244;29;20245;-83
2022/06/10 23:03:02;;;;;;;1.77;1.67;;;22.50;99.90;;;;;;10267862;28;20260;-84
2022/06/10 23:08:13;;;;;;;1.92;1.80;;;22.50;99.90;;;;;;10289396;28;20753;-85
2022/06/10 23:13:34;;;;;;;2.78;2.03;;;22.50;99.90;;;;;;10288886;28;20245;-85
2022/06/10 23:18:40;;;;;;;2.03;1.85;;;22.40;99.90;;;;;;10303899;28;20233;-84
2022/06/10 23:23:43;;;;;;;2.10;1.90;;;22.50;99.90;;;;;;10316624;28;20224;-84
2022/06/10 23:28:46;;;;;;;2.50;2.30;;;22.40;99.90;;;;;;10268716;28;20332;-84
2022/06/10 23:33:49;;;;;;;2.10;1.90;;;22.40;99.90;;;;;;10262610;28;20923;-84
2022/06/10 23:38:52;;;;;;;2.15;1.95;;;22.40;99.90;;;;;;10279153;28;20299;-84
2022/06/10 23:43:55;;;;;;;1.90;1.80;;;22.30;99.90;;;;;;10277760;28;20955;-84
2022/06/10 23:54:26;;;;;;;2.08;1.88;;;22.30;99.90;;;;;;10278030;28;20308;-84
2022/06/10 23:59:31;;;;;;;2.22;1.88;;;22.30;99.90;;;;;;10277319;28;20233;-84
